Time;durP1;ratioP1;P1;durP2;ratioP2;P2;SDS_P1;SDS_P2;PMS_P1;PMS_P2;Temp;Humidity;BMP_temperature;BMP_pressure;BME280_temperature;BME280_humidity;BME280_pressure;Samples;Min_cycle;Max_cycle;Signal;HPM_P1;HPM_P2
2023/05/08 00:00:03;;;;;;;3.60;1.93;;;;;;;;;;5024237;28;20029;-63
2023/05/08 00:02:28;;;;;;;2.72;2.20;;;;;;;;;;5011645;28;20036;-63
2023/05/08 00:04:54;;;;;;;2.67;2.37;;;;;;;;;;5024698;28;20048;-70
2023/05/08 00:07:19;;;;;;;3.08;2.10;;;;;;;;;;5004340;28;20262;-62
2023/05/08 00:09:44;;;;;;;2.97;2.47;;;;;;;;;;5021886;28;20467;-68
2023/05/08 00:12:10;;;;;;;2.60;2.15;;;;;;;;;;5025532;28;20099;-67
2023/05/08 00:14:35;;;;;;;3.00;2.50;;;;;;;;;;5019403;28;21013;-62
2023/05/08 00:17:01;;;;;;;2.67;2.20;;;;;;;;;;5006681;28;20279;-61
2023/05/08 00:19:26;;;;;;;2.67;2.10;;;;;;;;;;5021499;28;20045;-63
2023/05/08 00:21:51;;;;;;;3.67;2.20;;;;;;;;;;5017546;28;20053;-61
2023/05/08 00:24:16;;;;;;;2.80;2.00;;;;;;;;;;5022486;28;20275;-71
2023/05/08 00:26:43;;;;;;;3.13;2.20;;;;;;;;;;5005732;28;21135;-68
2023/05/08 00:29:08;;;;;;;2.63;2.05;;;;;;;;;;5003762;28;20423;-62
2023/05/08 00:31:33;;;;;;;2.57;2.33;;;;;;;;;;5003734;28;20120;-62
2023/05/08 00:33:58;;;;;;;2.83;2.17;;;;;;;;;;5035721;28;20275;-60
2023/05/08 00:36:24;;;;;;;2.60;2.13;;;;;;;;;;5038271;28;20864;-71
2023/05/08 00:38:50;;;;;;;2.78;1.90;;;;;;;;;;5028840;28;20283;-63
2023/05/08 00:41:15;;;;;;;2.67;2.08;;;;;;;;;;5025272;28;20036;-62
2023/05/08 00:43:40;;;;;;;2.60;2.10;;;;;;;;;;5003113;28;20097;-65
2023/05/08 00:46:08;;;;;;;2.45;2.10;;;;;;;;;;4990754;28;20100;-65
2023/05/08 00:48:33;;;;;;;2.53;2.03;;;;;;;;;;5034905;28;20094;-57
2023/05/08 00:50:59;;;;;;;2.42;2.20;;;;;;;;;;4992463;28;20033;-63
2023/05/08 00:53:24;;;;;;;2.63;2.17;;;;;;;;;;5009097;28;20182;-62
2023/05/08 00:55:50;;;;;;;3.05;2.03;;;;;;;;;;5041738;28;20518;-64
2023/05/08 00:58:15;;;;;;;2.50;1.83;;;;;;;;;;5026769;28;20037;-62
2023/05/08 01:00:41;;;;;;;2.60;2.10;;;;;;;;;;5001410;28;20048;-61
2023/05/08 01:03:06;;;;;;;3.50;2.03;;;;;;;;;;5003678;28;21041;-64
2023/05/08 01:05:32;;;;;;;2.38;2.08;;;;;;;;;;5010380;28;20461;-64
2023/05/08 01:07:57;;;;;;;2.92;2.45;;;;;;;;;;5006349;28;20489;-68
2023/05/08 01:10:22;;;;;;;3.80;2.35;;;;;;;;;;5024738;28;20954;-66
2023/05/08 01:12:47;;;;;;;2.30;2.00;;;;;;;;;;5023674;28;20505;-67
2023/05/08 01:15:13;;;;;;;2.50;2.10;;;;;;;;;;5020208;28;20339;-66
2023/05/08 01:17:44;;;;;;;3.00;2.13;;;;;;;;;;5013406;28;20029;-62
2023/05/08 01:20:16;;;;;;;3.67;2.20;;;;;;;;;;5016873;28;20040;-67
2023/05/08 01:23:00;;;;;;;3.17;2.28;;;;;;;;;;4987260;28;20032;-66
2023/05/08 01:25:36;;;;;;;2.65;2.05;;;;;;;;;;5043603;28;20043;-60
2023/05/08 01:28:12;;;;;;;3.17;2.35;;;;;;;;;;5026126;28;20012;-58
2023/05/08 01:30:37;;;;;;;4.03;2.22;;;;;;;;;;5026195;28;20029;-62
2023/05/08 01:33:07;;;;;;;2.40;1.90;;;;;;;;;;5044602;28;20050;-61
2023/05/08 01:35:33;;;;;;;3.13;2.10;;;;;;;;;;5004307;28;20735;-65
2023/05/08 01:38:02;;;;;;;2.17;1.85;;;;;;;;;;5002480;28;20041;-68
2023/05/08 01:40:27;;;;;;;2.63;2.20;;;;;;;;;;5010527;28;20029;-67
2023/05/08 01:42:56;;;;;;;2.92;2.20;;;;;;;;;;5022135;28;20638;-68
2023/05/08 01:45:24;;;;;;;2.60;2.17;;;;;;;;;;4991355;28;20025;-63
2023/05/08 01:47:51;;;;;;;2.35;2.00;;;;;;;;;;5001168;28;20056;-65
2023/05/08 01:50:29;;;;;;;2.80;2.05;;;;;;;;;;4986260;28;20468;-68
2023/05/08 01:52:58;;;;;;;2.70;2.20;;;;;;;;;;4984839;28;20029;-59
2023/05/08 01:55:24;;;;;;;2.58;2.25;;;;;;;;;;5018448;28;20057;-66
2023/05/08 01:57:50;;;;;;;3.20;2.10;;;;;;;;;;5004251;28;20091;-68
2023/05/08 02:00:17;;;;;;;2.20;2.00;;;;;;;;;;5020505;28;20351;-68
2023/05/08 02:02:42;;;;;;;2.15;1.90;;;;;;;;;;5019226;28;20116;-67
2023/05/08 02:05:07;;;;;;;2.65;2.13;;;;;;;;;;5004435;28;20441;-57
2023/05/08 02:07:34;;;;;;;2.40;1.80;;;;;;;;;;5017372;28;20029;-68
2023/05/08 02:09:59;;;;;;;2.40;2.05;;;;;;;;;;5001033;28;20155;-71
2023/05/08 02:12:24;;;;;;;2.58;2.10;;;;;;;;;;4983291;28;20041;-60
2023/05/08 02:14:50;;;;;;;2.70;2.00;;;;;;;;;;5024371;28;20072;-66
2023/05/08 02:17:15;;;;;;;2.88;2.08;;;;;;;;;;5024999;28;20907;-64
2023/05/08 02:19:41;;;;;;;3.58;2.50;;;;;;;;;;5017410;28;20107;-62
2023/05/08 02:22:06;;;;;;;3.00;2.20;;;;;;;;;;4996408;28;20124;-62
2023/05/08 02:24:31;;;;;;;2.63;2.33;;;;;;;;;;5000063;28;20344;-61
2023/05/08 02:26:56;;;;;;;2.30;2.10;;;;;;;;;;5025453;28;20036;-64
2023/05/08 02:29:22;;;;;;;3.00;2.10;;;;;;;;;;5022927;28;20939;-64
2023/05/08 02:31:47;;;;;;;2.72;2.30;;;;;;;;;;5024031;28;20731;-63
2023/05/08 02:34:12;;;;;;;3.17;1.80;;;;;;;;;;5025896;28;20528;-64
2023/05/08 02:36:37;;;;;;;2.63;2.20;;;;;;;;;;5019403;28;20292;-64
2023/05/08 02:39:03;;;;;;;2.72;2.05;;;;;;;;;;5009804;28;20590;-64
2023/05/08 02:41:29;;;;;;;2.33;2.00;;;;;;;;;;5024974;28;20147;-64
2023/05/08 02:43:55;;;;;;;2.70;2.00;;;;;;;;;;5025941;28;20043;-68
2023/05/08 02:46:29;;;;;;;3.00;2.17;;;;;;;;;;5006733;28;20038;-69
2023/05/08 02:48:59;;;;;;;2.53;2.00;;;;;;;;;;5004628;28;20337;-61
2023/05/08 02:51:24;;;;;;;2.50;2.10;;;;;;;;;;4980249;28;20088;-69
2023/05/08 02:53:50;;;;;;;3.43;2.10;;;;;;;;;;5020942;28;20606;-61
2023/05/08 02:56:35;;;;;;;2.30;1.95;;;;;;;;;;4995176;28;20429;-64
2023/05/08 02:59:12;;;;;;;2.45;2.00;;;;;;;;;;5010073;28;20048;-71
2023/05/08 03:01:41;;;;;;;2.60;2.10;;;;;;;;;;5005598;28;20033;-61
2023/05/08 03:04:09;;;;;;;2.65;2.00;;;;;;;;;;4993890;28;20072;-70
2023/05/08 03:06:39;;;;;;;3.35;2.40;;;;;;;;;;5027679;28;20055;-70
2023/05/08 03:09:04;;;;;;;2.75;2.15;;;;;;;;;;5018313;28;20025;-62
2023/05/08 03:11:32;;;;;;;2.53;2.05;;;;;;;;;;5023805;28;20040;-61
2023/05/08 03:13:57;;;;;;;3.22;2.00;;;;;;;;;;5013226;28;20037;-61
2023/05/08 03:16:23;;;;;;;2.42;2.15;;;;;;;;;;5007988;28;20135;-69
2023/05/08 03:18:51;;;;;;;4.78;2.63;;;;;;;;;;5011566;28;20037;-66
2023/05/08 03:21:17;;;;;;;2.67;2.17;;;;;;;;;;5005880;28;20068;-74
2023/05/08 03:23:42;;;;;;;2.63;2.20;;;;;;;;;;4975016;28;20804;-70
2023/05/08 03:26:07;;;;;;;2.77;2.27;;;;;;;;;;5009645;28;20040;-71
2023/05/08 03:28:32;;;;;;;2.63;2.17;;;;;;;;;;5023808;28;20352;-69
2023/05/08 03:30:57;;;;;;;2.40;2.00;;;;;;;;;;5029333;28;20029;-67
2023/05/08 03:33:23;;;;;;;2.42;2.00;;;;;;;;;;5026182;28;20128;-67
2023/05/08 03:35:48;;;;;;;2.63;2.00;;;;;;;;;;5028709;28;20429;-70
2023/05/08 03:38:13;;;;;;;2.20;1.98;;;;;;;;;;5031156;28;20043;-62
2023/05/08 03:40:41;;;;;;;2.63;2.17;;;;;;;;;;5006283;28;20572;-69
2023/05/08 03:43:06;;;;;;;3.28;2.20;;;;;;;;;;5024080;28;20933;-65
2023/05/08 03:45:38;;;;;;;2.50;2.17;;;;;;;;;;5009258;28;20036;-67
2023/05/08 03:48:04;;;;;;;2.75;2.10;;;;;;;;;;5028397;28;20254;-67
2023/05/08 03:50:29;;;;;;;2.35;2.10;;;;;;;;;;5020507;28;20270;-61
2023/05/08 03:52:55;;;;;;;2.88;1.92;;;;;;;;;;5045944;28;20021;-64
2023/05/08 03:55:20;;;;;;;2.77;2.13;;;;;;;;;;5029367;28;20164;-65
2023/05/08 03:57:56;;;;;;;2.20;1.92;;;;;;;;;;5014530;28;20421;-62
2023/05/08 04:00:28;;;;;;;2.60;1.83;;;;;;;;;;5029745;28;20237;-65
2023/05/08 04:02:59;;;;;;;2.53;2.10;;;;;;;;;;5017643;28;20043;-65
2023/05/08 04:05:27;;;;;;;2.78;2.15;;;;;;;;;;5013766;28;20539;-63
2023/05/08 04:07:55;;;;;;;2.28;2.08;;;;;;;;;;5022571;28;20029;-72
2023/05/08 04:10:20;;;;;;;2.55;1.98;;;;;;;;;;5048162;28;20028;-66
2023/05/08 04:12:55;;;;;;;2.37;1.97;;;;;;;;;;5049076;28;20118;-68
2023/05/08 04:15:24;;;;;;;2.78;1.92;;;;;;;;;;5048538;28;20349;-68
2023/05/08 04:17:57;;;;;;;2.20;1.95;;;;;;;;;;5011654;28;20040;-69
2023/05/08 04:20:23;;;;;;;2.17;1.73;;;;;;;;;;5046545;28;20037;-69
2023/05/08 04:22:49;;;;;;;2.40;1.98;;;;;;;;;;5010980;28;20094;-64
2023/05/08 04:25:15;;;;;;;2.55;2.08;;;;;;;;;;5044367;28;20039;-66
2023/05/08 04:27:40;;;;;;;2.90;2.30;;;;;;;;;;5027539;28;20769;-65
2023/05/08 04:30:06;;;;;;;2.28;1.85;;;;;;;;;;5012567;28;20328;-66
2023/05/08 04:32:33;;;;;;;2.58;2.20;;;;;;;;;;5010956;28;20041;-61
2023/05/08 04:34:58;;;;;;;2.30;1.95;;;;;;;;;;5013934;28;20052;-66
2023/05/08 04:37:24;;;;;;;2.87;2.30;;;;;;;;;;5051537;28;20456;-66
2023/05/08 04:39:50;;;;;;;2.83;2.10;;;;;;;;;;5009865;28;20297;-63
2023/05/08 04:42:15;;;;;;;2.45;1.88;;;;;;;;;;4993095;28;20767;-64
2023/05/08 04:44:40;;;;;;;2.60;2.20;;;;;;;;;;5018807;28;20920;-63
2023/05/08 04:47:05;;;;;;;2.77;2.20;;;;;;;;;;5011953;28;20135;-63
2023/05/08 04:49:31;;;;;;;3.20;2.20;;;;;;;;;;5025044;28;21106;-62
2023/05/08 04:51:56;;;;;;;3.17;2.03;;;;;;;;;;5009775;28;20531;-62
2023/05/08 04:54:21;;;;;;;3.35;2.30;;;;;;;;;;5019138;28;20665;-57
2023/05/08 04:56:47;;;;;;;2.63;2.00;;;;;;;;;;5049431;28;20047;-64
2023/05/08 04:59:12;;;;;;;2.83;2.20;;;;;;;;;;5045268;28;20372;-64
2023/05/08 05:01:37;;;;;;;2.60;2.10;;;;;;;;;;5010410;28;20025;-62
2023/05/08 05:04:02;;;;;;;2.60;2.20;;;;;;;;;;5029434;28;20137;-60
2023/05/08 05:06:28;;;;;;;2.97;2.00;;;;;;;;;;5009468;28;20392;-62
2023/05/08 05:08:53;;;;;;;2.10;1.90;;;;;;;;;;5022119;28;20081;-62
2023/05/08 05:11:18;;;;;;;2.85;2.20;;;;;;;;;;5040450;28;20340;-66
2023/05/08 05:13:43;;;;;;;2.83;2.40;;;;;;;;;;5052101;28;20964;-60
2023/05/08 05:16:09;;;;;;;3.15;2.20;;;;;;;;;;5028358;28;20358;-62
2023/05/08 05:18:34;;;;;;;2.78;2.03;;;;;;;;;;5045168;28;20098;-63
2023/05/08 05:20:59;;;;;;;2.17;1.80;;;;;;;;;;5015214;28;20251;-60
2023/05/08 05:23:25;;;;;;;2.83;2.10;;;;;;;;;;5018056;28;20792;-59
2023/05/08 05:25:50;;;;;;;3.05;2.05;;;;;;;;;;5022163;28;21221;-61
2023/05/08 05:28:15;;;;;;;2.40;1.98;;;;;;;;;;5020565;28;20028;-60
2023/05/08 05:30:40;;;;;;;3.13;2.33;;;;;;;;;;5026910;28;20506;-60
2023/05/08 05:33:06;;;;;;;2.92;2.20;;;;;;;;;;5011866;28;20337;-60
2023/05/08 05:35:31;;;;;;;3.17;2.15;;;;;;;;;;5008458;28;20655;-61
2023/05/08 05:37:56;;;;;;;3.28;2.20;;;;;;;;;;4993724;28;20250;-57
2023/05/08 05:40:22;;;;;;;4.43;2.63;;;;;;;;;;5008359;28;20072;-59
2023/05/08 05:42:47;;;;;;;3.47;2.17;;;;;;;;;;5020814;28;20405;-64
2023/05/08 05:45:13;;;;;;;2.72;2.20;;;;;;;;;;5010310;28;20223;-65
2023/05/08 05:47:42;;;;;;;4.00;2.00;;;;;;;;;;5024471;28;20051;-63
2023/05/08 05:50:08;;;;;;;2.40;2.05;;;;;;;;;;5024868;28;20157;-64
2023/05/08 05:52:33;;;;;;;3.33;2.53;;;;;;;;;;5018954;28;20170;-61
2023/05/08 05:54:58;;;;;;;4.87;2.20;;;;;;;;;;5024322;28;20738;-59
2023/05/08 05:57:24;;;;;;;2.30;2.00;;;;;;;;;;4995155;28;20293;-63
2023/05/08 05:59:49;;;;;;;4.23;2.80;;;;;;;;;;5004370;22;20727;-63
2023/05/08 06:02:17;;;;;;;4.47;2.83;;;;;;;;;;4996511;28;20048;-65
2023/05/08 06:04:42;;;;;;;4.05;2.92;;;;;;;;;;4968278;28;20067;-70
2023/05/08 06:07:07;;;;;;;4.90;3.13;;;;;;;;;;4962694;28;20044;-64
2023/05/08 06:09:33;;;;;;;5.70;3.30;;;;;;;;;;4974046;28;20037;-66
2023/05/08 06:11:58;;;;;;;3.63;3.00;;;;;;;;;;4968552;28;20681;-65
2023/05/08 06:14:23;;;;;;;6.65;3.08;;;;;;;;;;4961837;28;20665;-68
2023/05/08 06:16:48;;;;;;;6.73;3.20;;;;;;;;;;4963571;28;20443;-62
2023/05/08 06:19:14;;;;;;;6.80;3.80;;;;;;;;;;4969456;28;21053;-67
2023/05/08 06:21:39;;;;;;;6.72;3.40;;;;;;;;;;4959931;28;20336;-67
2023/05/08 06:26:32;;;;;;;4.93;3.13;;;;;;;;;;4968896;28;20480;-60
2023/05/08 06:28:58;;;;;;;6.85;3.95;;;;;;;;;;4963394;28;20113;-65
2023/05/08 06:31:23;;;;;;;4.80;3.50;;;;;;;;;;4980312;28;20042;-63
2023/05/08 06:33:48;;;;;;;6.10;3.70;;;;;;;;;;4979893;28;20026;-62
2023/05/08 06:36:13;;;;;;;6.47;4.00;;;;;;;;;;4980965;28;20411;-61
2023/05/08 06:38:38;;;;;;;5.03;3.40;;;;;;;;;;4963393;28;20650;-63
2023/05/08 06:41:04;;;;;;;6.10;3.13;;;;;;;;;;4978923;28;20487;-58
2023/05/08 06:43:29;;;;;;;7.18;3.22;;;;;;;;;;4979955;28;20315;-65
2023/05/08 06:45:54;;;;;;;6.70;3.65;;;;;;;;;;4980921;28;20038;-63
2023/05/08 06:48:20;;;;;;;6.25;3.00;;;;;;;;;;4961043;28;20665;-58
2023/05/08 06:50:45;;;;;;;6.47;3.00;;;;;;;;;;4981399;28;20088;-62
2023/05/08 06:53:10;;;;;;;5.32;3.42;;;;;;;;;;4974302;28;20036;-62
2023/05/08 06:55:36;;;;;;;4.72;3.33;;;;;;;;;;4957058;28;20054;-59
2023/05/08 06:58:01;;;;;;;5.23;3.40;;;;;;;;;;4982549;28;20522;-59
2023/05/08 07:00:26;;;;;;;5.45;3.50;;;;;;;;;;4984990;28;20292;-56
2023/05/08 07:02:52;;;;;;;7.10;3.63;;;;;;;;;;4981143;28;20632;-58
2023/05/08 07:05:18;;;;;;;5.00;3.20;;;;;;;;;;4982116;28;20642;-58
2023/05/08 07:07:43;;;;;;;6.68;3.95;;;;;;;;;;4983243;28;20132;-59
2023/05/08 07:10:09;;;;;;;5.13;3.30;;;;;;;;;;4983796;28;20044;-63
2023/05/08 07:12:34;;;;;;;6.30;3.63;;;;;;;;;;4979402;28;20042;-59
2023/05/08 07:14:59;;;;;;;6.70;3.42;;;;;;;;;;4964935;28;20124;-56
2023/05/08 07:17:25;;;;;;;5.67;3.77;;;;;;;;;;4981579;28;20037;-56
2023/05/08 07:19:50;;;;;;;6.38;3.95;;;;;;;;;;4969846;28;20873;-57
2023/05/08 07:22:16;;;;;;;6.03;3.83;;;;;;;;;;4968609;28;20172;-55
2023/05/08 07:24:41;;;;;;;6.32;4.30;;;;;;;;;;4963881;28;20793;-58
2023/05/08 07:27:07;;;;;;;6.88;3.78;;;;;;;;;;4976477;28;21606;-56
2023/05/08 07:29:34;;;;;;;7.38;4.55;;;;;;;;;;4963123;28;20056;-57
2023/05/08 07:32:00;;;;;;;6.25;4.13;;;;;;;;;;4980019;28;20034;-60
2023/05/08 07:34:25;;;;;;;6.10;3.70;;;;;;;;;;4982403;28;20446;-61
2023/05/08 07:36:50;;;;;;;8.02;4.55;;;;;;;;;;4981912;28;20057;-58
2023/05/08 07:39:15;;;;;;;6.93;3.77;;;;;;;;;;4981200;28;20074;-57
2023/05/08 07:41:40;;;;;;;6.20;4.40;;;;;;;;;;4979403;28;20372;-57
2023/05/08 07:44:06;;;;;;;7.87;4.17;;;;;;;;;;4981673;28;20346;-59
2023/05/08 07:46:31;;;;;;;6.75;4.18;;;;;;;;;;4977740;28;20939;-60
2023/05/08 07:48:56;;;;;;;6.18;4.00;;;;;;;;;;4976595;28;20792;-58
2023/05/08 07:51:22;;;;;;;6.20;3.83;;;;;;;;;;4977069;28;20065;-58
2023/05/08 07:53:49;;;;;;;6.60;3.90;;;;;;;;;;4976204;28;20045;-60
2023/05/08 07:56:14;;;;;;;7.20;3.83;;;;;;;;;;4979273;28;20068;-61
2023/05/08 07:58:41;;;;;;;6.07;3.87;;;;;;;;;;4964950;28;20030;-61
2023/05/08 08:01:06;;;;;;;5.90;3.80;;;;;;;;;;4980686;28;20335;-62
2023/05/08 08:03:31;;;;;;;6.23;3.63;;;;;;;;;;4979164;28;20698;-61
2023/05/08 08:05:57;;;;;;;5.20;3.20;;;;;;;;;;4981514;28;20801;-60
2023/05/08 08:08:22;;;;;;;5.95;3.65;;;;;;;;;;4979244;28;20539;-60
2023/05/08 08:10:48;;;;;;;5.43;3.50;;;;;;;;;;4979779;28;20508;-61
2023/05/08 08:13:13;;;;;;;5.70;3.25;;;;;;;;;;4980644;28;20062;-60
2023/05/08 08:15:38;;;;;;;5.90;3.70;;;;;;;;;;4958981;28;20164;-58
2023/05/08 08:18:04;;;;;;;6.27;3.43;;;;;;;;;;4979161;28;20312;-59
2023/05/08 08:20:29;;;;;;;5.45;3.22;;;;;;;;;;4978618;28;20069;-62
2023/05/08 08:22:54;;;;;;;6.97;3.57;;;;;;;;;;4960513;28;20592;-65
2023/05/08 08:25:20;;;;;;;5.47;3.35;;;;;;;;;;4978449;28;20754;-53
2023/05/08 08:27:45;;;;;;;6.10;3.28;;;;;;;;;;4978606;28;20602;-61
2023/05/08 08:30:11;;;;;;;5.60;3.10;;;;;;;;;;4982379;28;20053;-59
2023/05/08 08:32:36;;;;;;;6.57;3.10;;;;;;;;;;4991166;28;20029;-64
2023/05/08 08:35:02;;;;;;;5.67;3.30;;;;;;;;;;4966971;28;21388;-59
2023/05/08 08:37:27;;;;;;;5.25;3.03;;;;;;;;;;4960655;28;20277;-64
2023/05/08 08:39:53;;;;;;;4.53;2.85;;;;;;;;;;4973157;28;20431;-59
2023/05/08 08:42:18;;;;;;;6.13;3.60;;;;;;;;;;4962708;28;20040;-60
2023/05/08 08:44:43;;;;;;;6.07;3.47;;;;;;;;;;4980412;28;20415;-61
2023/05/08 08:47:11;;;;;;;6.43;3.37;;;;;;;;;;4977538;28;20046;-61
2023/05/08 08:49:40;;;;;;;7.03;3.80;;;;;;;;;;4956675;28;20295;-55
2023/05/08 08:52:06;;;;;;;8.10;3.10;;;;;;;;;;4958481;28;20080;-63
2023/05/08 08:54:33;;;;;;;9.30;3.95;;;;;;;;;;4950217;28;20136;-68
2023/05/08 08:56:59;;;;;;;8.80;4.80;;;;;;;;;;4974532;28;20544;-58
2023/05/08 08:59:24;;;;;;;8.02;3.97;;;;;;;;;;4987646;28;21071;-63
2023/05/08 09:01:52;;;;;;;7.77;3.80;;;;;;;;;;4968660;28;20411;-59
2023/05/08 09:04:18;;;;;;;8.02;3.97;;;;;;;;;;4968754;28;20275;-57
2023/05/08 09:06:44;;;;;;;7.55;3.72;;;;;;;;;;4988532;28;20116;-57
2023/05/08 09:09:09;;;;;;;8.13;4.22;;;;;;;;;;4974345;28;20026;-60
2023/05/08 09:11:34;;;;;;;6.70;3.87;;;;;;;;;;4960273;28;20045;-61
2023/05/08 09:14:00;;;;;;;5.95;3.65;;;;;;;;;;4983385;28;20041;-59
2023/05/08 09:16:25;;;;;;;7.18;3.83;;;;;;;;;;4984364;28;20069;-62
2023/05/08 09:18:50;;;;;;;7.37;3.93;;;;;;;;;;4970116;28;20431;-62
2023/05/08 09:21:15;;;;;;;6.37;4.00;;;;;;;;;;4971129;28;20462;-60
2023/05/08 09:23:53;;;;;;;7.00;4.20;;;;;;;;;;4979933;28;20410;-58
2023/05/08 09:26:31;;;;;;;6.47;4.07;;;;;;;;;;4978860;28;20584;-60
2023/05/08 09:29:08;;;;;;;7.43;4.18;;;;;;;;;;4978346;28;20524;-67
2023/05/08 09:31:34;;;;;;;6.15;4.05;;;;;;;;;;4981693;28;20068;-58
2023/05/08 09:33:59;;;;;;;6.53;3.83;;;;;;;;;;4977284;28;20593;-64
2023/05/08 09:36:27;;;;;;;6.40;4.40;;;;;;;;;;4980364;28;20038;-63
2023/05/08 09:38:53;;;;;;;6.00;3.88;;;;;;;;;;4978061;28;20641;-59
2023/05/08 09:41:19;;;;;;;5.93;3.93;;;;;;;;;;4978479;28;20041;-57
2023/05/08 09:43:45;;;;;;;5.85;3.80;;;;;;;;;;4966119;28;20111;-63
2023/05/08 09:46:23;;;;;;;7.30;4.05;;;;;;;;;;4964159;28;20497;-59
2023/05/08 09:48:48;;;;;;;7.50;3.72;;;;;;;;;;4948820;28;20057;-64
2023/05/08 09:51:14;;;;;;;6.43;4.00;;;;;;;;;;4981243;28;20516;-57
2023/05/08 09:53:39;;;;;;;8.40;4.40;;;;;;;;;;4974743;28;20038;-65
2023/05/08 09:56:05;;;;;;;6.32;4.45;;;;;;;;;;4980385;28;20305;-64
2023/05/08 09:58:39;;;;;;;6.65;3.92;;;;;;;;;;4982996;28;20069;-58
2023/05/08 10:01:05;;;;;;;7.90;3.80;;;;;;;;;;4966449;28;20042;-56
2023/05/08 10:03:48;;;;;;;6.25;3.63;;;;;;;;;;4984009;28;20124;-67
2023/05/08 10:06:14;;;;;;;6.13;3.67;;;;;;;;;;4952520;28;20043;-59
2023/05/08 10:08:39;;;;;;;9.00;4.07;;;;;;;;;;4967390;28;20065;-57
2023/05/08 10:11:17;;;;;;;5.88;3.90;;;;;;;;;;4976568;28;20054;-58
2023/05/08 10:13:42;;;;;;;5.28;3.88;;;;;;;;;;4971478;28;20046;-64
2023/05/08 10:16:17;;;;;;;8.02;4.00;;;;;;;;;;4962292;28;20120;-58
2023/05/08 10:18:47;;;;;;;6.68;3.53;;;;;;;;;;4961777;28;20042;-57
2023/05/08 10:21:12;;;;;;;;;;;;;;;;;;4959937;28;20041;-58
2023/05/08 10:23:37;;;;;;;5.63;3.50;;;;;;;;;;4969988;28;19990;-59
2023/05/08 10:26:06;;;;;;;6.63;3.55;;;;;;;;;;4976832;28;20037;-61
2023/05/08 10:28:32;;;;;;;6.22;3.65;;;;;;;;;;4978047;28;20502;-61
2023/05/08 10:31:00;;;;;;;5.68;3.72;;;;;;;;;;4974301;28;20033;-61
2023/05/08 10:33:28;;;;;;;4.88;3.58;;;;;;;;;;4977340;28;20049;-62
2023/05/08 10:35:54;;;;;;;6.50;3.80;;;;;;;;;;4962641;28;20132;-60
2023/05/08 10:38:20;;;;;;;4.78;3.80;;;;;;;;;;4963263;28;23437;-61
2023/05/08 10:40:45;;;;;;;4.47;3.83;;;;;;;;;;4981565;28;20358;-59
2023/05/08 10:43:10;;;;;;;5.85;4.05;;;;;;;;;;4980792;28;20676;-60
2023/05/08 10:45:36;;;;;;;6.05;3.88;;;;;;;;;;4959659;28;20516;-58
2023/05/08 10:48:04;;;;;;;6.05;3.90;;;;;;;;;;4945037;28;20111;-59
2023/05/08 10:50:38;;;;;;;5.40;4.40;;;;;;;;;;4981630;28;20686;-61
2023/05/08 10:53:05;;;;;;;7.45;4.47;;;;;;;;;;4957974;28;20046;-58
2023/05/08 10:55:37;;;;;;;6.35;4.30;;;;;;;;;;4975665;28;20093;-57
2023/05/08 10:58:02;;;;;;;6.85;3.90;;;;;;;;;;4981972;28;20045;-60
2023/05/08 11:00:46;;;;;;;6.82;3.92;;;;;;;;;;4964365;28;20891;-61
2023/05/08 11:03:12;;;;;;;4.97;3.92;;;;;;;;;;4964821;28;20439;-56
2023/05/08 11:05:46;;;;;;;5.80;4.10;;;;;;;;;;4975626;28;20075;-59
2023/05/08 11:08:16;;;;;;;6.95;4.47;;;;;;;;;;4986666;28;20331;-60
2023/05/08 11:10:41;;;;;;;4.70;3.92;;;;;;;;;;4982489;28;20041;-61
2023/05/08 11:13:06;;;;;;;7.33;3.73;;;;;;;;;;4961821;28;20360;-60
2023/05/08 11:15:38;;;;;;;8.60;4.30;;;;;;;;;;4961322;22;20124;-58
2023/05/08 11:18:14;;;;;;;7.07;4.85;;;;;;;;;;4927167;28;21133;-62
2023/05/08 11:20:39;;;;;;;5.35;4.20;;;;;;;;;;4936147;28;20038;-60
2023/05/08 11:23:21;;;;;;;8.98;4.35;;;;;;;;;;4941253;28;20530;-63
2023/05/08 11:25:46;;;;;;;5.72;4.38;;;;;;;;;;4946543;28;20060;-62
2023/05/08 11:28:12;;;;;;;8.37;4.73;;;;;;;;;;4945907;28;20096;-61
2023/05/08 11:30:38;;;;;;;7.85;3.95;;;;;;;;;;4942402;28;20519;-59
2023/05/08 11:33:03;;;;;;;6.85;4.05;;;;;;;;;;4964623;23;20050;-64
2023/05/08 11:35:41;;;;;;;7.22;4.30;;;;;;;;;;5010590;28;20119;-61
2023/05/08 11:38:20;;;;;;;6.80;4.75;;;;;;;;;;5009422;28;20129;-58
2023/05/08 11:40:52;;;;;;;6.38;3.95;;;;;;;;;;4994082;28;20061;-56
2023/05/08 11:43:25;;;;;;;5.07;4.30;;;;;;;;;;5020580;28;20051;-58
2023/05/08 11:45:51;;;;;;;4.25;3.75;;;;;;;;;;5028892;28;20128;-65
2023/05/08 11:48:16;;;;;;;7.63;3.88;;;;;;;;;;4984094;28;20495;-63
2023/05/08 11:50:41;;;;;;;8.90;4.18;;;;;;;;;;4994372;28;20447;-60
2023/05/08 11:53:06;;;;;;;6.27;4.00;;;;;;;;;;4987586;28;20425;-65
2023/05/08 11:55:32;;;;;;;4.90;3.58;;;;;;;;;;5006732;28;20546;-63
2023/05/08 11:57:57;;;;;;;5.90;3.43;;;;;;;;;;4988823;28;20037;-64
2023/05/08 12:00:22;;;;;;;4.67;3.47;;;;;;;;;;4995966;28;20793;-63
2023/05/08 12:02:47;;;;;;;4.53;3.73;;;;;;;;;;5003436;28;20654;-64
2023/05/08 12:05:13;;;;;;;5.00;3.40;;;;;;;;;;5011100;28;20302;-63
2023/05/08 12:07:42;;;;;;;5.67;3.60;;;;;;;;;;5009048;28;20288;-61
2023/05/08 12:10:07;;;;;;;4.88;3.30;;;;;;;;;;5025789;28;20291;-60
2023/05/08 12:12:39;;;;;;;5.28;3.22;;;;;;;;;;5010971;28;20684;-59
2023/05/08 12:15:05;;;;;;;5.15;3.22;;;;;;;;;;5007459;28;20069;-62
2023/05/08 12:17:30;;;;;;;5.30;3.60;;;;;;;;;;5025488;28;20088;-64
2023/05/08 12:20:02;;;;;;;6.30;3.60;;;;;;;;;;5026540;28;20038;-62
2023/05/08 12:22:28;;;;;;;4.30;3.38;;;;;;;;;;5027262;28;20033;-61
2023/05/08 12:24:53;;;;;;;5.43;3.22;;;;;;;;;;5028537;28;20546;-59
2023/05/08 12:27:18;;;;;;;5.25;3.42;;;;;;;;;;4991407;28;20057;-63
2023/05/08 12:29:44;;;;;;;3.90;3.50;;;;;;;;;;4987186;28;20044;-62
2023/05/08 12:32:09;;;;;;;4.25;3.42;;;;;;;;;;5023667;28;20033;-66
2023/05/08 12:34:35;;;;;;;5.47;3.15;;;;;;;;;;5026663;28;20041;-65
2023/05/08 12:37:01;;;;;;;4.70;3.50;;;;;;;;;;4994964;28;21486;-60
2023/05/08 12:39:26;;;;;;;4.03;3.10;;;;;;;;;;4990285;28;20069;-58
2023/05/08 12:41:51;;;;;;;3.40;2.80;;;;;;;;;;5025083;28;20383;-60
2023/05/08 12:44:21;;;;;;;4.63;3.00;;;;;;;;;;5010310;28;20525;-61
2023/05/08 12:46:48;;;;;;;3.55;3.10;;;;;;;;;;5026984;28;20421;-61
2023/05/08 12:49:13;;;;;;;4.03;2.90;;;;;;;;;;4988792;28;20114;-61
2023/05/08 12:51:39;;;;;;;4.43;3.23;;;;;;;;;;4977868;28;20530;-61
2023/05/08 12:54:05;;;;;;;3.97;3.03;;;;;;;;;;4990103;28;21120;-60
2023/05/08 12:56:30;;;;;;;5.93;3.10;;;;;;;;;;4984912;28;20045;-60
2023/05/08 12:58:57;;;;;;;4.03;3.35;;;;;;;;;;5027545;28;20045;-60
2023/05/08 13:01:23;;;;;;;3.63;3.10;;;;;;;;;;4991762;28;20087;-59
2023/05/08 13:03:51;;;;;;;4.20;3.20;;;;;;;;;;4994477;28;20033;-61
2023/05/08 13:06:19;;;;;;;4.68;3.10;;;;;;;;;;5008151;28;20362;-66
2023/05/08 13:08:45;;;;;;;3.63;3.00;;;;;;;;;;5025826;28;20041;-59
2023/05/08 13:11:10;;;;;;;5.93;3.10;;;;;;;;;;5026280;28;20017;-63
2023/05/08 13:13:35;;;;;;;4.57;3.03;;;;;;;;;;4996052;28;20162;-60
2023/05/08 13:16:01;;;;;;;5.50;2.72;;;;;;;;;;5024680;28;20292;-62
2023/05/08 13:18:28;;;;;;;4.53;3.05;;;;;;;;;;5025163;28;20045;-63
2023/05/08 13:20:53;;;;;;;4.57;3.28;;;;;;;;;;5027110;28;20021;-63
2023/05/08 13:23:18;;;;;;;5.70;3.30;;;;;;;;;;4993845;28;20029;-63
2023/05/08 13:25:44;;;;;;;5.60;3.63;;;;;;;;;;5024191;28;20025;-62
2023/05/08 13:28:09;;;;;;;5.90;3.23;;;;;;;;;;5007511;28;20849;-61
2023/05/08 13:30:35;;;;;;;8.32;3.90;;;;;;;;;;5037798;28;20543;-63
2023/05/08 13:33:00;;;;;;;6.68;3.67;;;;;;;;;;5020015;28;20001;-65
2023/05/08 13:35:27;;;;;;;6.03;3.30;;;;;;;;;;5019943;28;20037;-62
2023/05/08 13:37:52;;;;;;;8.88;4.00;;;;;;;;;;5020610;28;20049;-62
2023/05/08 13:40:17;;;;;;;5.70;3.53;;;;;;;;;;5013422;28;20110;-63
2023/05/08 13:42:43;;;;;;;5.87;3.67;;;;;;;;;;5022273;28;20445;-64
2023/05/08 13:45:09;;;;;;;4.43;3.43;;;;;;;;;;5039351;28;20797;-59
2023/05/08 13:47:35;;;;;;;6.15;3.50;;;;;;;;;;5005898;28;20266;-62
2023/05/08 13:50:00;;;;;;;4.60;3.20;;;;;;;;;;5021696;28;20029;-58
2023/05/08 13:52:28;;;;;;;6.63;3.38;;;;;;;;;;5038496;28;20017;-63
2023/05/08 13:54:53;;;;;;;5.47;3.85;;;;;;;;;;5037657;28;20044;-64
2023/05/08 13:57:18;;;;;;;6.25;3.15;;;;;;;;;;4995176;28;20064;-63
2023/05/08 13:59:44;;;;;;;5.87;3.20;;;;;;;;;;5038902;28;20041;-64
2023/05/08 14:02:09;;;;;;;4.20;3.20;;;;;;;;;;5039677;28;20137;-60
2023/05/08 14:04:34;;;;;;;3.93;3.03;;;;;;;;;;5021109;28;20501;-61
2023/05/08 14:07:00;;;;;;;4.32;3.30;;;;;;;;;;5005343;28;20267;-61
2023/05/08 14:09:25;;;;;;;4.00;3.25;;;;;;;;;;5023539;28;20025;-58
2023/05/08 14:11:50;;;;;;;4.57;3.50;;;;;;;;;;5025257;28;20445;-61
2023/05/08 14:14:16;;;;;;;7.33;3.00;;;;;;;;;;5041960;28;20036;-62
2023/05/08 14:16:41;;;;;;;5.50;3.40;;;;;;;;;;5042681;28;20299;-60
2023/05/08 14:19:06;;;;;;;4.23;3.10;;;;;;;;;;5017606;28;20272;-59
2023/05/08 14:21:31;;;;;;;4.40;3.40;;;;;;;;;;5038534;28;20111;-59
2023/05/08 14:23:56;;;;;;;5.13;3.50;;;;;;;;;;5039788;28;20808;-58
2023/05/08 14:26:22;;;;;;;5.60;3.57;;;;;;;;;;5040113;28;20315;-61
2023/05/08 14:28:47;;;;;;;4.68;3.50;;;;;;;;;;5042506;28;20362;-59
2023/05/08 14:31:12;;;;;;;7.60;3.30;;;;;;;;;;5034866;28;20124;-63
2023/05/08 14:33:37;;;;;;;8.00;3.60;;;;;;;;;;5031388;28;20066;-64
2023/05/08 14:36:03;;;;;;;7.17;3.33;;;;;;;;;;5011565;28;20303;-63
2023/05/08 14:38:28;;;;;;;5.47;3.60;;;;;;;;;;5024365;28;21030;-57
2023/05/08 14:40:53;;;;;;;5.73;3.30;;;;;;;;;;5026114;28;20037;-61